createdAt,value
2022-10-18T00:01:22.545Z,15.00
2022-10-18T00:03:49.589Z,12.05
2022-10-18T00:06:16.553Z,9.35
2022-10-18T00:08:43.566Z,11.32
2022-10-18T00:11:10.625Z,10.43
2022-10-18T00:13:38.005Z,13.85
2022-10-18T00:16:09.851Z,8.15
2022-10-18T00:18:36.904Z,8.88
2022-10-18T00:21:15.745Z,10.35
2022-10-18T00:23:43.574Z,9.95
2022-10-18T00:26:22.328Z,9.55
2022-10-18T00:28:57.728Z,9.83
2022-10-18T00:31:28.633Z,12.95
2022-10-18T00:33:58.621Z,13.45
2022-10-18T00:36:27.457Z,12.88
2022-10-18T00:38:54.921Z,15.63
2022-10-18T00:41:24.516Z,15.15
2022-10-18T00:44:07.426Z,13.38
2022-10-18T00:46:37.191Z,12.02
2022-10-18T00:49:12.728Z,11.63
2022-10-18T00:51:51.737Z,12.18
2022-10-18T00:54:20.931Z,10.97
2022-10-18T00:56:48.237Z,17.38
2022-10-18T00:59:17.556Z,11.10
2022-10-18T01:01:45.506Z,14.70
2022-10-18T01:04:14.686Z,15.27
2022-10-18T01:06:59.786Z,15.70
2022-10-18T01:09:53.654Z,16.58
2022-10-18T01:13:04.210Z,9.48
2022-10-18T01:15:41.160Z,11.23
2022-10-18T01:18:33.629Z,12.32
2022-10-18T01:21:36.849Z,10.77
2022-10-18T01:24:18.840Z,10.75
2022-10-18T01:27:01.661Z,19.42
2022-10-18T01:29:37.554Z,13.10
2022-10-18T01:32:12.601Z,16.05
2022-10-18T01:34:43.559Z,11.48
2022-10-18T01:37:15.027Z,11.85
2022-10-18T01:39:45.583Z,9.70
2022-10-18T01:42:17.271Z,10.75
2022-10-18T01:44:45.603Z,11.05
2022-10-18T01:47:14.516Z,9.93
2022-10-18T01:49:41.579Z,8.85
2022-10-18T01:53:16.003Z,9.32
2022-10-18T01:55:54.597Z,13.40
2022-10-18T01:58:31.086Z,11.15
2022-10-18T02:01:08.587Z,13.15
2022-10-18T02:03:42.137Z,9.65
2022-10-18T02:06:22.682Z,13.55
2022-10-18T02:09:04.384Z,12.85
2022-10-18T02:11:33.932Z,12.50
2022-10-18T02:14:08.380Z,12.32
2022-10-18T02:16:40.822Z,13.73
2022-10-18T02:19:27.725Z,9.93
2022-10-18T02:21:56.931Z,15.20
2022-10-18T02:24:31.788Z,12.98
2022-10-18T02:26:58.825Z,9.70
2022-10-18T02:29:25.923Z,15.88
2022-10-18T02:32:02.924Z,13.98
2022-10-18T02:34:46.589Z,8.85
2022-10-18T02:37:15.815Z,9.40
2022-10-18T02:39:51.565Z,13.65
2022-10-18T02:42:18.601Z,9.45
2022-10-18T02:44:45.610Z,9.68
2022-10-18T02:47:13.165Z,9.02
2022-10-18T02:49:40.337Z,9.07
2022-10-18T02:52:07.297Z,9.18
2022-10-18T02:54:34.276Z,11.38
2022-10-18T02:57:01.217Z,13.75
2022-10-18T02:59:28.172Z,9.40
2022-10-18T03:01:55.250Z,10.30
2022-10-18T03:04:22.298Z,13.70
2022-10-18T03:06:49.314Z,12.13
2022-10-18T03:09:16.393Z,14.23
2022-10-18T03:11:43.322Z,15.70
2022-10-18T03:14:10.326Z,13.65
2022-10-18T03:16:37.290Z,11.10
2022-10-18T03:19:04.294Z,9.18
2022-10-18T03:21:31.244Z,12.02
2022-10-18T03:23:59.803Z,10.48
2022-10-18T03:26:26.919Z,14.82
2022-10-18T03:28:53.915Z,10.52
2022-10-18T03:31:20.947Z,18.17
2022-10-18T03:34:30.796Z,15.68
2022-10-18T03:39:30.468Z,11.20
2022-10-18T03:41:57.629Z,9.32
2022-10-18T03:44:24.688Z,9.80
2022-10-18T03:46:51.821Z,10.60
2022-10-18T03:49:18.789Z,9.38
2022-10-18T03:51:45.721Z,9.82
2022-10-18T03:54:12.685Z,9.02
2022-10-18T03:56:39.620Z,13.43
2022-10-18T03:59:06.788Z,10.60
2022-10-18T04:01:33.773Z,15.82
2022-10-18T04:04:00.808Z,10.85
2022-10-18T04:06:27.768Z,8.95
2022-10-18T04:08:55.640Z,8.07
2022-10-18T04:11:22.581Z,7.10
2022-10-18T04:13:50.473Z,7.28
2022-10-18T04:16:17.616Z,11.02
2022-10-18T04:18:44.606Z,6.18
2022-10-18T04:21:11.586Z,6.80
2022-10-18T04:23:38.980Z,6.70
2022-10-18T04:26:06.605Z,5.72
2022-10-18T04:28:34.532Z,6.97
2022-10-18T04:31:01.524Z,7.82
2022-10-18T04:33:28.476Z,9.48
2022-10-18T04:35:55.435Z,5.65
2022-10-18T04:38:22.383Z,8.25
2022-10-18T04:40:49.961Z,8.88
2022-10-18T04:43:17.018Z,7.65
2022-10-18T04:45:46.179Z,9.50
2022-10-18T04:48:13.169Z,10.40
2022-10-18T04:50:40.263Z,9.65
2022-10-18T04:53:15.028Z,8.93
2022-10-18T04:55:46.824Z,11.98
2022-10-18T04:58:13.758Z,11.13
2022-10-18T05:00:41.322Z,6.05
2022-10-18T05:03:09.089Z,5.95
2022-10-18T05:05:49.672Z,7.20
2022-10-18T05:08:22.979Z,7.63
2022-10-18T05:10:49.913Z,11.25
2022-10-18T05:13:17.111Z,14.25
2022-10-18T05:15:45.896Z,10.88
2022-10-18T05:18:12.801Z,8.63
2022-10-18T05:20:39.738Z,6.70
2022-10-18T05:23:06.808Z,13.07
2022-10-18T05:25:33.763Z,6.55
2022-10-18T05:28:06.268Z,16.42
2022-10-18T05:30:42.888Z,5.50
2022-10-18T05:33:09.941Z,13.32
2022-10-18T05:35:36.913Z,7.45
2022-10-18T05:39:14.214Z,6.05
2022-10-18T05:41:41.204Z,7.63
2022-10-18T05:48:26.731Z,7.75
2022-10-18T05:57:40.387Z,7.63
2022-10-18T06:00:07.933Z,5.25
2022-10-18T06:02:38.749Z,12.45
2022-10-18T06:05:05.938Z,7.38
2022-10-18T06:07:33.126Z,4.97
2022-10-18T06:10:00.481Z,9.52
2022-10-18T06:12:27.588Z,7.68
2022-10-18T06:14:54.618Z,8.85
2022-10-18T06:17:21.585Z,5.38
2022-10-18T06:19:49.087Z,7.18
2022-10-18T06:22:16.190Z,9.27
2022-10-18T06:24:43.203Z,6.10
2022-10-18T06:27:10.254Z,5.90
2022-10-18T06:29:38.805Z,5.57
2022-10-18T06:32:07.288Z,7.57
2022-10-18T06:34:34.625Z,9.07
2022-10-18T06:37:01.600Z,7.97
2022-10-18T06:39:28.616Z,6.40
2022-10-18T06:41:55.606Z,8.65
2022-10-18T06:44:24.465Z,7.90
2022-10-18T06:46:53.490Z,5.45
2022-10-18T06:49:20.681Z,8.30
2022-10-18T06:51:47.683Z,4.18
2022-10-18T06:54:18.447Z,5.95
2022-10-18T06:56:45.889Z,8.48
2022-10-18T06:59:12.872Z,5.18
2022-10-18T07:01:39.939Z,5.68
2022-10-18T07:04:07.388Z,8.88
2022-10-18T07:06:34.551Z,6.25
2022-10-18T07:09:03.149Z,6.18
2022-10-18T07:11:30.160Z,6.65
2022-10-18T07:14:04.854Z,6.78
2022-10-18T07:16:33.363Z,6.40
2022-10-18T07:19:00.350Z,7.32
2022-10-18T07:21:27.350Z,7.53
2022-10-18T07:23:54.617Z,8.68
2022-10-18T07:26:24.908Z,6.43
2022-10-18T07:28:55.436Z,9.18
2022-10-18T07:31:23.624Z,5.90
2022-10-18T07:33:50.981Z,7.63
2022-10-18T07:36:18.016Z,5.55
2022-10-18T07:38:45.262Z,6.95
2022-10-18T07:41:13.868Z,7.35
2022-10-18T07:43:47.427Z,7.13
2022-10-18T07:46:15.348Z,5.38
2022-10-18T07:48:42.909Z,6.00
2022-10-18T07:51:10.915Z,6.40
2022-10-18T07:53:38.461Z,8.00
2022-10-18T07:56:09.848Z,6.85
2022-10-18T07:58:37.193Z,8.35
2022-10-18T08:01:06.985Z,5.47
2022-10-18T08:03:34.500Z,7.93
2022-10-18T08:06:02.148Z,7.53
2022-10-18T08:08:29.917Z,5.82
2022-10-18T08:11:06.101Z,4.18
2022-10-18T08:13:33.540Z,7.65
2022-10-18T08:16:09.527Z,6.20
2022-10-18T08:18:37.045Z,4.95
2022-10-18T08:21:06.224Z,13.77
2022-10-18T08:23:34.415Z,6.13
2022-10-18T08:26:02.612Z,12.50
2022-10-18T08:28:29.910Z,8.80
2022-10-18T08:30:57.067Z,12.13
2022-10-18T08:33:24.056Z,12.70
2022-10-18T08:36:02.420Z,7.18
2022-10-18T08:38:31.355Z,8.30
2022-10-18T08:41:31.394Z,12.10
2022-10-18T08:44:16.500Z,13.15
2022-10-18T08:46:47.795Z,6.05
2022-10-18T08:49:45.636Z,5.43
2022-10-18T08:52:27.884Z,6.53
2022-10-18T08:55:28.137Z,9.45
2022-10-18T08:57:57.829Z,5.75
2022-10-18T09:03:04.828Z,5.35
2022-10-18T09:05:48.023Z,6.35
2022-10-18T09:08:39.256Z,7.78
2022-10-18T09:11:48.085Z,9.93
2022-10-18T09:14:26.325Z,4.00
2022-10-18T09:20:59.519Z,7.45
2022-10-18T09:23:48.406Z,8.43
2022-10-18T09:26:24.798Z,7.03
2022-10-18T09:29:07.012Z,9.23
2022-10-18T09:32:04.873Z,6.00
2022-10-18T09:34:51.927Z,9.60
2022-10-18T09:37:20.991Z,9.80
2022-10-18T09:39:50.537Z,10.35
2022-10-18T09:42:37.801Z,7.32
2022-10-18T09:45:17.851Z,4.70
2022-10-18T09:47:55.968Z,8.52
2022-10-18T09:50:29.251Z,10.38
2022-10-18T09:53:12.470Z,11.27
2022-10-18T09:55:55.346Z,7.55
2022-10-18T09:58:25.241Z,5.53
2022-10-18T10:00:53.765Z,6.65
2022-10-18T10:03:20.820Z,5.38
2022-10-18T10:06:01.295Z,8.43
2022-10-18T10:08:35.147Z,5.95
2022-10-18T10:11:02.180Z,6.03
2022-10-18T10:13:29.227Z,6.22
2022-10-18T10:16:02.604Z,8.50
2022-10-18T10:18:35.998Z,8.73
2022-10-18T10:21:12.677Z,5.90
2022-10-18T10:23:46.592Z,4.65
2022-10-18T10:26:33.413Z,5.70
2022-10-18T10:29:00.623Z,6.47
2022-10-18T10:31:29.924Z,6.20
2022-10-18T10:34:15.182Z,6.20
2022-10-18T10:36:54.053Z,3.95
2022-10-18T10:39:24.918Z,4.63
2022-10-18T10:41:54.564Z,8.27
2022-10-18T10:44:24.036Z,7.78
2022-10-18T10:46:52.425Z,5.75
2022-10-18T10:52:28.127Z,19.52
2022-10-18T10:55:11.320Z,7.53
2022-10-18T10:57:50.942Z,9.55
2022-10-18T11:00:43.899Z,6.47
2022-10-18T11:03:34.506Z,6.70
2022-10-18T11:06:02.111Z,6.88
2022-10-18T11:08:38.342Z,5.70
2022-10-18T11:11:23.019Z,9.18
2022-10-18T11:14:25.717Z,12.35
2022-10-18T11:17:19.943Z,9.52
2022-10-18T11:20:02.324Z,4.88
2022-10-18T11:22:45.201Z,5.50
2022-10-18T11:25:17.068Z,13.00
2022-10-18T11:27:56.470Z,8.88
2022-10-18T11:30:56.580Z,11.00
2022-10-18T11:33:50.117Z,6.82
2022-10-18T11:36:27.700Z,6.63
2022-10-18T11:39:06.073Z,7.82
2022-10-18T11:45:57.670Z,10.98
2022-10-18T11:48:48.546Z,7.00
2022-10-18T11:51:38.752Z,6.15
2022-10-18T11:54:20.466Z,7.60
2022-10-18T11:57:04.758Z,6.82
2022-10-18T11:59:39.620Z,4.85
2022-10-18T12:03:00.888Z,9.18
2022-10-18T12:05:29.677Z,6.30
2022-10-18T12:08:10.525Z,6.03
2022-10-18T12:15:16.395Z,5.00
2022-10-18T12:21:07.948Z,7.32
2022-10-18T12:23:45.899Z,12.50
2022-10-18T12:26:13.366Z,9.65
2022-10-18T12:28:49.268Z,6.40
2022-10-18T12:31:26.370Z,8.77
2022-10-18T12:33:58.720Z,5.00
2022-10-18T12:36:47.414Z,7.30
2022-10-18T12:39:43.770Z,8.90
2022-10-18T12:42:28.180Z,5.90
2022-10-18T12:45:02.632Z,4.88
2022-10-18T12:47:30.955Z,8.43
2022-10-18T12:50:00.661Z,6.55
2022-10-18T12:52:31.464Z,6.60
2022-10-18T12:55:16.757Z,8.20
2022-10-18T12:58:53.135Z,7.97
2022-10-18T13:01:20.173Z,6.15
2022-10-18T13:03:54.157Z,6.20
2022-10-18T13:06:22.188Z,5.65
2022-10-18T13:09:09.397Z,7.25
2022-10-18T13:11:36.937Z,6.53
2022-10-18T13:14:07.083Z,6.30
2022-10-18T13:17:26.622Z,4.40
2022-10-18T13:20:38.736Z,5.45
2022-10-18T13:23:30.030Z,6.00
2022-10-18T13:26:09.454Z,9.63
2022-10-18T13:28:36.420Z,4.57
2022-10-18T13:31:27.169Z,11.10
2022-10-18T13:33:54.230Z,4.88
2022-10-18T13:40:40.767Z,5.50
2022-10-18T13:43:55.447Z,6.25
2022-10-18T13:46:23.532Z,6.05
2022-10-18T13:48:59.540Z,6.63
2022-10-18T13:51:32.378Z,5.22
2022-10-18T13:54:22.133Z,6.30
2022-10-18T14:01:42.487Z,6.68
2022-10-18T14:05:16.562Z,7.05
2022-10-18T14:07:48.665Z,11.27
2022-10-18T14:10:50.252Z,6.95
2022-10-18T14:13:24.489Z,6.57
2022-10-18T14:15:54.803Z,7.40
2022-10-18T14:18:32.893Z,6.93
2022-10-18T14:21:14.029Z,9.55
2022-10-18T14:23:44.830Z,7.78
2022-10-18T14:26:18.026Z,8.45
2022-10-18T14:29:27.615Z,4.78
2022-10-18T14:31:55.057Z,6.63
2022-10-18T14:34:22.324Z,7.03
2022-10-18T14:36:50.247Z,6.00
2022-10-18T14:39:24.035Z,3.80
2022-10-18T14:41:53.324Z,7.18
2022-10-18T14:44:29.597Z,6.72
2022-10-18T14:47:13.840Z,4.53
2022-10-18T14:49:47.757Z,6.32
2022-10-18T14:52:18.316Z,4.65
2022-10-18T14:54:46.264Z,4.28
2022-10-18T14:57:33.328Z,5.82
2022-10-18T15:00:03.290Z,6.28
2022-10-18T15:06:04.575Z,6.68
2022-10-18T15:08:43.551Z,5.28
2022-10-18T15:11:14.404Z,10.10
2022-10-18T15:14:13.137Z,5.35
2022-10-18T15:16:40.854Z,5.63
2022-10-18T15:19:28.774Z,6.22
2022-10-18T15:25:04.144Z,4.00
2022-10-18T15:27:33.471Z,5.93
2022-10-18T15:30:16.588Z,7.20
2022-10-18T15:32:56.879Z,6.22
2022-10-18T15:35:35.949Z,12.75
2022-10-18T15:38:24.603Z,9.88
2022-10-18T15:40:51.595Z,6.53
2022-10-18T15:44:13.336Z,5.45
2022-10-18T15:46:41.238Z,10.48
2022-10-18T15:49:47.030Z,7.20
2022-10-18T15:52:43.163Z,16.13
2022-10-18T15:55:32.988Z,7.97
2022-10-18T15:58:12.299Z,8.15
2022-10-18T16:00:39.279Z,5.47
2022-10-18T16:03:11.270Z,8.85
2022-10-18T16:05:38.831Z,6.28
2022-10-18T16:08:06.028Z,14.23
2022-10-18T16:10:32.988Z,7.75
2022-10-18T16:12:59.889Z,8.82
2022-10-18T16:15:26.885Z,6.57
2022-10-18T16:17:53.825Z,7.13
2022-10-18T16:20:23.149Z,11.90
2022-10-18T16:22:50.462Z,6.70
2022-10-18T16:25:17.522Z,7.72
2022-10-18T16:27:44.461Z,8.88
2022-10-18T16:30:21.218Z,7.47
2022-10-18T16:37:06.524Z,13.57
2022-10-18T16:39:35.415Z,8.93
2022-10-18T16:42:02.367Z,8.53
2022-10-18T16:44:29.355Z,10.13
2022-10-18T16:46:56.462Z,13.70
2022-10-18T16:49:25.937Z,15.45
2022-10-18T16:51:54.257Z,13.30
2022-10-18T16:54:21.346Z,11.35
2022-10-18T16:56:50.272Z,11.02
2022-10-18T16:59:29.023Z,9.70
2022-10-18T17:01:56.111Z,8.80
2022-10-18T17:04:23.152Z,10.23
2022-10-18T17:06:50.850Z,10.93
2022-10-18T17:09:17.877Z,8.02
2022-10-18T17:11:44.923Z,10.40
2022-10-18T17:14:11.897Z,7.93
2022-10-18T17:16:39.230Z,6.22
2022-10-18T17:19:10.467Z,6.20
2022-10-18T17:21:37.713Z,7.80
2022-10-18T17:24:06.262Z,6.45
2022-10-18T17:26:33.917Z,8.80
2022-10-18T17:29:06.729Z,5.88
2022-10-18T17:31:35.617Z,9.75
2022-10-18T17:34:03.151Z,8.98
2022-10-18T17:36:31.192Z,8.88
2022-10-18T17:38:58.445Z,7.60
2022-10-18T17:41:25.449Z,7.32
2022-10-18T17:43:52.423Z,5.88
2022-10-18T17:46:19.822Z,8.85
2022-10-18T17:48:47.269Z,9.85
2022-10-18T17:51:16.376Z,8.50
2022-10-18T17:53:43.433Z,8.75
2022-10-18T17:56:11.249Z,8.48
2022-10-18T17:58:38.467Z,9.07
2022-10-18T18:01:18.818Z,8.90
2022-10-18T18:03:47.871Z,8.98
2022-10-18T18:06:20.381Z,10.20
2022-10-18T18:09:46.118Z,9.20
2022-10-18T18:12:13.630Z,9.55
2022-10-18T18:14:41.045Z,7.78
2022-10-18T18:17:09.105Z,11.05
2022-10-18T18:19:36.421Z,10.30
2022-10-18T18:22:04.816Z,10.98
2022-10-18T18:24:31.994Z,11.40
2022-10-18T18:26:59.141Z,10.00
2022-10-18T18:29:27.831Z,8.05
2022-10-18T18:32:24.662Z,8.68
2022-10-18T18:34:51.578Z,8.93
2022-10-18T18:37:18.527Z,7.28
2022-10-18T18:39:45.471Z,10.43
2022-10-18T18:42:12.520Z,10.20
2022-10-18T18:44:39.568Z,7.50
2022-10-18T18:47:10.841Z,6.45
2022-10-18T18:49:40.048Z,10.25
2022-10-18T18:52:07.050Z,6.68
2022-10-18T18:54:34.098Z,7.60
2022-10-18T18:57:05.260Z,10.82
2022-10-18T18:59:32.403Z,9.27
2022-10-18T19:01:59.343Z,10.75
2022-10-18T19:04:26.401Z,7.15
2022-10-18T19:06:53.404Z,6.93
2022-10-18T19:09:22.317Z,8.93
2022-10-18T19:11:54.563Z,9.73
2022-10-18T19:16:53.513Z,8.23
2022-10-18T19:19:26.381Z,11.95
2022-10-18T19:21:56.172Z,10.85
2022-10-18T19:24:24.620Z,8.75
2022-10-18T19:26:53.793Z,9.25
2022-10-18T19:29:35.199Z,9.98
2022-10-18T19:32:05.848Z,12.18
2022-10-18T19:38:58.517Z,10.07
2022-10-18T19:43:57.984Z,11.57
2022-10-18T19:46:25.283Z,10.07
2022-10-18T19:48:54.144Z,12.00
2022-10-18T19:51:25.510Z,12.32
2022-10-18T19:53:55.445Z,12.93
2022-10-18T19:56:24.439Z,14.07
2022-10-18T20:03:17.388Z,9.57
2022-10-18T20:05:44.552Z,11.02
2022-10-18T20:08:11.511Z,14.82
2022-10-18T20:10:38.470Z,18.00
2022-10-18T20:13:05.519Z,13.57
2022-10-18T20:15:32.475Z,15.75
2022-10-18T20:17:59.420Z,14.00
2022-10-18T20:20:26.373Z,18.45
2022-10-18T20:22:53.390Z,18.92
2022-10-18T20:25:20.331Z,19.23
2022-10-18T20:27:47.272Z,26.75
2022-10-18T20:30:14.243Z,22.17
2022-10-18T20:32:42.023Z,23.30
2022-10-18T20:35:09.345Z,17.33
2022-10-18T20:37:36.887Z,14.95
2022-10-18T20:40:04.065Z,15.43
2022-10-18T20:42:31.029Z,17.25
2022-10-18T20:44:58.058Z,18.25
2022-10-18T20:47:25.098Z,22.38
2022-10-18T20:49:52.049Z,21.15
2022-10-18T20:52:19.057Z,21.30
2022-10-18T20:54:45.988Z,21.90
2022-10-18T20:57:12.945Z,22.25
2022-10-18T20:59:39.910Z,18.80
2022-10-18T21:02:07.265Z,19.10
2022-10-18T21:04:35.845Z,20.80
2022-10-18T21:07:04.745Z,19.92
2022-10-18T21:09:31.708Z,21.80
2022-10-18T21:11:58.694Z,23.90
2022-10-18T21:14:26.539Z,27.25
2022-10-18T21:16:53.699Z,26.50
2022-10-18T21:19:26.640Z,27.15
2022-10-18T21:21:56.247Z,29.58
2022-10-18T21:24:24.636Z,26.50
2022-10-18T21:26:51.806Z,26.98
2022-10-18T21:29:22.187Z,28.88
2022-10-18T21:31:52.240Z,33.80
2022-10-18T21:34:19.249Z,29.48
2022-10-18T21:36:47.620Z,27.15
2022-10-18T21:39:17.614Z,32.72
2022-10-18T21:41:45.077Z,29.67
2022-10-18T21:44:12.790Z,30.77
2022-10-18T21:46:40.517Z,27.80
2022-10-18T21:49:08.455Z,32.05
2022-10-18T21:51:35.820Z,31.33
2022-10-18T21:54:03.055Z,33.45
2022-10-18T21:56:32.697Z,31.27
2022-10-18T21:59:00.124Z,29.15
2022-10-18T22:01:32.295Z,37.53
2022-10-18T22:04:01.597Z,32.78
2022-10-18T22:06:30.437Z,35.95
2022-10-18T22:08:59.713Z,35.93
2022-10-18T22:11:39.416Z,36.92
2022-10-18T22:16:33.525Z,40.17
2022-10-18T22:19:02.780Z,47.10
2022-10-18T22:21:30.282Z,40.72
2022-10-18T22:23:58.725Z,38.88
2022-10-18T22:26:32.791Z,50.97
2022-10-18T22:29:02.721Z,100.45
2022-10-18T22:31:32.186Z,51.58
2022-10-18T22:34:01.586Z,53.58
2022-10-18T22:36:29.132Z,345.90
2022-10-18T22:38:56.373Z,137.25
2022-10-18T22:41:23.547Z,150.93
2022-10-18T22:43:51.975Z,148.93
2022-10-18T22:46:19.513Z,156.02
2022-10-18T22:48:46.505Z,142.45
2022-10-18T22:51:13.497Z,214.48
2022-10-18T22:53:40.829Z,147.68
2022-10-18T22:56:11.687Z,149.65
2022-10-18T22:58:38.731Z,137.27
2022-10-18T23:01:09.208Z,109.35
2022-10-18T23:03:36.877Z,133.25
2022-10-18T23:06:05.228Z,167.98
2022-10-18T23:08:32.741Z,126.43
2022-10-18T23:11:00.406Z,137.15
2022-10-18T23:13:28.360Z,51.05
2022-10-18T23:16:04.498Z,145.35
2022-10-18T23:22:57.539Z,77.28
2022-10-18T23:25:24.505Z,41.63
2022-10-18T23:27:51.491Z,53.38
2022-10-18T23:30:18.539Z,47.15
2022-10-18T23:32:45.507Z,40.38
2022-10-18T23:35:12.469Z,29.23
2022-10-18T23:37:39.445Z,47.97
2022-10-18T23:40:07.095Z,33.30
2022-10-18T23:42:34.024Z,37.38
2022-10-18T23:45:00.988Z,74.15
2022-10-18T23:47:28.052Z,39.58
2022-10-18T23:49:57.239Z,91.68
2022-10-18T23:52:24.895Z,87.93
2022-10-18T23:54:51.823Z,80.32
2022-10-18T23:57:18.777Z,55.05
2022-10-18T23:59:45.744Z,44.33
